sensor_id;sensor_type;location;lat;lon;timestamp;pressure;altitude;pressure_sealevel;temperature;humidity
71964;BME280;59834;52.124;5.422;2023-04-28T00:00:50;101461.19;;;8.70;57.73
71964;BME280;59834;52.124;5.422;2023-04-28T00:03:18;101470.94;;;8.66;57.94
71964;BME280;59834;52.124;5.422;2023-04-28T00:05:47;101472.63;;;8.67;57.71
71964;BME280;59834;52.124;5.422;2023-04-28T00:08:16;101471.78;;;8.67;57.83
71964;BME280;59834;52.124;5.422;2023-04-28T00:10:42;101477.00;;;8.67;58.03
71964;BME280;59834;52.124;5.422;2023-04-28T00:13:10;101470.22;;;8.63;57.44
71964;BME280;59834;52.124;5.422;2023-04-28T00:15:37;101455.53;;;8.60;57.38
71964;BME280;59834;52.124;5.422;2023-04-28T00:18:03;101448.63;;;8.59;58.25
71964;BME280;59834;52.124;5.422;2023-04-28T00:20:32;101449.63;;;8.57;57.08
71964;BME280;59834;52.124;5.422;2023-04-28T00:22:59;101447.00;;;8.57;57.61
71964;BME280;59834;52.124;5.422;2023-04-28T00:25:26;101433.03;;;8.58;58.31
71964;BME280;59834;52.124;5.422;2023-04-28T00:27:53;101424.44;;;8.56;57.79
71964;BME280;59834;52.124;5.422;2023-04-28T00:30:22;101425.22;;;8.58;56.98
71964;BME280;59834;52.124;5.422;2023-04-28T00:32:51;101415.78;;;8.55;57.65
71964;BME280;59834;52.124;5.422;2023-04-28T00:35:19;101414.84;;;8.56;57.91
71964;BME280;59834;52.124;5.422;2023-04-28T00:37:47;101406.94;;;8.58;57.16
71964;BME280;59834;52.124;5.422;2023-04-28T00:40:18;101403.50;;;8.57;57.46
71964;BME280;59834;52.124;5.422;2023-04-28T00:42:45;101405.25;;;8.57;58.07
71964;BME280;59834;52.124;5.422;2023-04-28T00:45:11;101418.31;;;8.57;57.40
71964;BME280;59834;52.124;5.422;2023-04-28T00:47:38;101418.31;;;8.57;57.47
71964;BME280;59834;52.124;5.422;2023-04-28T00:50:05;101413.22;;;8.54;57.50
71964;BME280;59834;52.124;5.422;2023-04-28T00:52:33;101410.69;;;8.52;57.81
71964;BME280;59834;52.124;5.422;2023-04-28T00:54:59;101408.16;;;8.50;57.89
71964;BME280;59834;52.124;5.422;2023-04-28T00:57:26;101407.22;;;8.52;58.12
71964;BME280;59834;52.124;5.422;2023-04-28T00:59:53;101400.31;;;8.50;58.01
71964;BME280;59834;52.124;5.422;2023-04-28T01:02:20;101396.94;;;8.48;58.23
71964;BME280;59834;52.124;5.422;2023-04-28T01:04:48;101389.88;;;8.50;57.95
71964;BME280;59834;52.124;5.422;2023-04-28T01:07:16;101382.97;;;8.49;58.45
71964;BME280;59834;52.124;5.422;2023-04-28T01:09:43;101385.66;;;8.48;58.76
71964;BME280;59834;52.124;5.422;2023-04-28T01:12:36;101384.03;;;8.45;58.82
71964;BME280;59834;52.124;5.422;2023-04-28T01:15:15;101373.63;;;8.45;58.53
71964;BME280;59834;52.124;5.422;2023-04-28T01:17:42;101385.72;;;8.46;58.97
71964;BME280;59834;52.124;5.422;2023-04-28T01:20:09;101384.88;;;8.46;59.10
71964;BME280;59834;52.124;5.422;2023-04-28T01:22:36;101385.78;;;8.45;58.88
71964;BME280;59834;52.124;5.422;2023-04-28T01:25:03;101378.84;;;8.45;58.99
71964;BME280;59834;52.124;5.422;2023-04-28T01:27:30;101374.44;;;8.46;59.36
71964;BME280;59834;52.124;5.422;2023-04-28T01:29:56;101377.13;;;8.44;60.05
71964;BME280;59834;52.124;5.422;2023-04-28T01:32:23;101371.91;;;8.44;59.52
71964;BME280;59834;52.124;5.422;2023-04-28T01:34:50;101371.91;;;8.44;59.51
71964;BME280;59834;52.124;5.422;2023-04-28T01:37:17;101367.69;;;8.42;59.52
71964;BME280;59834;52.124;5.422;2023-04-28T01:39:44;101363.47;;;8.39;59.12
71964;BME280;59834;52.124;5.422;2023-04-28T01:42:10;101358.25;;;8.39;59.44
71964;BME280;59834;52.124;5.422;2023-04-28T01:44:37;101357.41;;;8.37;59.32
71964;BME280;59834;52.124;5.422;2023-04-28T01:47:04;101353.97;;;8.37;59.13
71964;BME280;59834;52.124;5.422;2023-04-28T01:49:30;101349.69;;;8.36;59.91
71964;BME280;59834;52.124;5.422;2023-04-28T01:51:57;101342.91;;;8.32;59.34
71964;BME280;59834;52.124;5.422;2023-04-28T01:54:24;101332.53;;;8.30;59.41
71964;BME280;59834;52.124;5.422;2023-04-28T01:57:16;101327.47;;;8.27;59.29
71964;BME280;59834;52.124;5.422;2023-04-28T01:59:45;101332.81;;;8.24;59.70
71964;BME280;59834;52.124;5.422;2023-04-28T02:02:11;101337.06;;;8.26;59.92
71964;BME280;59834;52.124;5.422;2023-04-28T02:04:38;101336.22;;;8.26;60.16
71964;BME280;59834;52.124;5.422;2023-04-28T02:07:06;101331.00;;;8.26;59.58
71964;BME280;59834;52.124;5.422;2023-04-28T02:09:35;101332.69;;;8.27;59.53
71964;BME280;59834;52.124;5.422;2023-04-28T02:12:01;101336.22;;;8.26;59.85
71964;BME280;59834;52.124;5.422;2023-04-28T02:14:29;101331.84;;;8.26;59.65
71964;BME280;59834;52.124;5.422;2023-04-28T02:17:03;101327.47;;;8.27;60.07
71964;BME280;59834;52.124;5.422;2023-04-28T02:19:30;101327.31;;;8.30;59.75
71964;BME280;59834;52.124;5.422;2023-04-28T02:21:57;101320.41;;;8.29;59.48
71964;BME280;59834;52.124;5.422;2023-04-28T02:24:24;101316.09;;;8.28;59.84
71964;BME280;59834;52.124;5.422;2023-04-28T02:26:50;101310.13;;;8.26;59.97
71964;BME280;59834;52.124;5.422;2023-04-28T02:29:21;101309.28;;;8.25;60.27
71964;BME280;59834;52.124;5.422;2023-04-28T02:31:49;101303.22;;;8.25;60.18
71964;BME280;59834;52.124;5.422;2023-04-28T02:34:16;101298.91;;;8.24;60.60
71964;BME280;59834;52.124;5.422;2023-04-28T02:36:43;101293.78;;;8.22;60.05
71964;BME280;59834;52.124;5.422;2023-04-28T02:39:10;101294.75;;;8.20;59.98
71964;BME280;59834;52.124;5.422;2023-04-28T02:41:37;101288.84;;;8.16;60.89
71964;BME280;59834;52.124;5.422;2023-04-28T02:44:04;101295.75;;;8.17;61.43
71964;BME280;59834;52.124;5.422;2023-04-28T02:46:31;101281.88;;;8.17;60.72
71964;BME280;59834;52.124;5.422;2023-04-28T02:48:59;101293.91;;;8.19;60.88
71964;BME280;59834;52.124;5.422;2023-04-28T02:51:26;101283.41;;;8.21;60.76
71964;BME280;59834;52.124;5.422;2023-04-28T02:53:52;101276.41;;;8.21;61.08
71964;BME280;59834;52.124;5.422;2023-04-28T02:56:19;101269.47;;;8.22;61.26
71964;BME280;59834;52.124;5.422;2023-04-28T02:58:46;101261.66;;;8.22;61.25
71964;BME280;59834;52.124;5.422;2023-04-28T03:01:13;101249.50;;;8.21;60.50
71964;BME280;59834;52.124;5.422;2023-04-28T03:03:39;101247.97;;;8.17;61.11
71964;BME280;59834;52.124;5.422;2023-04-28T03:06:06;101247.13;;;8.16;61.38
71964;BME280;59834;52.124;5.422;2023-04-28T03:08:33;101251.50;;;8.16;61.62
71964;BME280;59834;52.124;5.422;2023-04-28T03:11:00;101247.19;;;8.15;60.86
71964;BME280;59834;52.124;5.422;2023-04-28T03:13:28;101247.97;;;8.17;60.68
71964;BME280;59834;52.124;5.422;2023-04-28T03:15:55;101239.34;;;8.15;61.38
71964;BME280;59834;52.124;5.422;2023-04-28T03:18:22;101241.34;;;8.10;61.54
71964;BME280;59834;52.124;5.422;2023-04-28T03:20:49;101237.06;;;8.09;61.48
71964;BME280;59834;52.124;5.422;2023-04-28T03:23:16;101236.06;;;8.11;61.36
71964;BME280;59834;52.124;5.422;2023-04-28T03:25:43;101228.31;;;8.10;61.71
71964;BME280;59834;52.124;5.422;2023-04-28T03:28:11;101235.22;;;8.11;62.19
71964;BME280;59834;52.124;5.422;2023-04-28T03:30:38;101230.91;;;8.10;62.46
71964;BME280;59834;52.124;5.422;2023-04-28T03:33:04;101221.34;;;8.10;62.24
71964;BME280;59834;52.124;5.422;2023-04-28T03:35:32;101220.63;;;8.07;62.33
71964;BME280;59834;52.124;5.422;2023-04-28T03:37:59;101213.59;;;8.09;62.33
71964;BME280;59834;52.124;5.422;2023-04-28T03:40:25;101211.97;;;8.06;62.20
71964;BME280;59834;52.124;5.422;2023-04-28T03:42:52;101203.31;;;8.06;62.49
71964;BME280;59834;52.124;5.422;2023-04-28T03:45:19;101211.88;;;8.08;62.45
71964;BME280;59834;52.124;5.422;2023-04-28T03:47:46;101210.22;;;8.07;63.46
71964;BME280;59834;52.124;5.422;2023-04-28T03:50:13;101213.75;;;8.06;62.66
71964;BME280;59834;52.124;5.422;2023-04-28T03:52:39;101215.56;;;8.03;62.94
71964;BME280;59834;52.124;5.422;2023-04-28T03:55:06;101212.13;;;8.03;62.42
71964;BME280;59834;52.124;5.422;2023-04-28T03:57:33;101206.81;;;8.04;62.93
71964;BME280;59834;52.124;5.422;2023-04-28T04:00:01;101205.13;;;8.03;63.26
71964;BME280;59834;52.124;5.422;2023-04-28T04:02:28;101204.28;;;8.03;63.41
71964;BME280;59834;52.124;5.422;2023-04-28T04:04:54;101194.84;;;8.00;63.93
71964;BME280;59834;52.124;5.422;2023-04-28T04:07:22;101193.22;;;7.98;64.21
71964;BME280;59834;52.124;5.422;2023-04-28T04:09:49;101188.75;;;8.01;64.26
71964;BME280;59834;52.124;5.422;2023-04-28T04:12:17;101191.41;;;8.00;63.99
71964;BME280;59834;52.124;5.422;2023-04-28T04:14:44;101183.59;;;8.00;64.36
71964;BME280;59834;52.124;5.422;2023-04-28T04:17:11;101185.34;;;7.99;63.92
71964;BME280;59834;52.124;5.422;2023-04-28T04:19:39;101175.84;;;7.98;64.29
71964;BME280;59834;52.124;5.422;2023-04-28T04:22:06;101176.69;;;7.99;64.33
71964;BME280;59834;52.124;5.422;2023-04-28T04:24:33;101165.47;;;7.97;63.95
71964;BME280;59834;52.124;5.422;2023-04-28T04:27:00;101166.31;;;7.97;64.68
71964;BME280;59834;52.124;5.422;2023-04-28T04:29:27;101172.38;;;7.98;64.66
71964;BME280;59834;52.124;5.422;2023-04-28T04:31:54;101165.41;;;7.98;64.60
71964;BME280;59834;52.124;5.422;2023-04-28T04:34:21;101174.00;;;8.00;64.35
71964;BME280;59834;52.124;5.422;2023-04-28T04:36:48;101171.25;;;8.03;65.11
71964;BME280;59834;52.124;5.422;2023-04-28T04:39:15;101157.28;;;8.04;64.78
71964;BME280;59834;52.124;5.422;2023-04-28T04:41:42;101148.63;;;8.04;65.04
71964;BME280;59834;52.124;5.422;2023-04-28T04:44:11;101152.84;;;8.07;65.13
71964;BME280;59834;52.124;5.422;2023-04-28T04:46:39;101150.25;;;8.07;64.92
71964;BME280;59834;52.124;5.422;2023-04-28T04:49:06;101145.81;;;8.09;65.23
71964;BME280;59834;52.124;5.422;2023-04-28T04:51:34;101153.31;;;8.15;65.38
71964;BME280;59834;52.124;5.422;2023-04-28T04:54:02;101149.81;;;8.16;64.76
71964;BME280;59834;52.124;5.422;2023-04-28T04:56:29;101150.56;;;8.18;65.56
71964;BME280;59834;52.124;5.422;2023-04-28T04:58:58;101147.94;;;8.18;65.93
71964;BME280;59834;52.124;5.422;2023-04-28T05:01:25;101140.06;;;8.19;65.78
71964;BME280;59834;52.124;5.422;2023-04-28T05:03:56;101130.56;;;8.18;65.46
71964;BME280;59834;52.124;5.422;2023-04-28T05:06:23;101126.94;;;8.21;66.06
71964;BME280;59834;52.124;5.422;2023-04-28T05:08:50;101127.72;;;8.23;66.14
71964;BME280;59834;52.124;5.422;2023-04-28T05:11:16;101129.41;;;8.24;66.72
71964;BME280;59834;52.124;5.422;2023-04-28T05:13:44;101134.47;;;8.27;67.53
71964;BME280;59834;52.124;5.422;2023-04-28T05:16:10;101137.09;;;8.27;67.02
71964;BME280;59834;52.124;5.422;2023-04-28T05:18:37;101128.28;;;8.30;66.75
71964;BME280;59834;52.124;5.422;2023-04-28T05:21:10;101125.50;;;8.33;66.31
71964;BME280;59834;52.124;5.422;2023-04-28T05:23:49;101126.34;;;8.33;67.52
71964;BME280;59834;52.124;5.422;2023-04-28T05:26:18;101130.66;;;8.34;66.79
71964;BME280;59834;52.124;5.422;2023-04-28T05:28:45;101132.34;;;8.35;66.53
71964;BME280;59834;52.124;5.422;2023-04-28T05:31:15;101133.09;;;8.37;66.69
71964;BME280;59834;52.124;5.422;2023-04-28T05:33:42;101136.59;;;8.38;67.21
71964;BME280;59834;52.124;5.422;2023-04-28T05:36:08;101139.88;;;8.41;67.26
71964;BME280;59834;52.124;5.422;2023-04-28T05:38:35;101141.50;;;8.44;67.49
71964;BME280;59834;52.124;5.422;2023-04-28T05:41:02;101145.72;;;8.46;68.76
71964;BME280;59834;52.124;5.422;2023-04-28T05:43:29;101153.63;;;8.45;69.14
71964;BME280;59834;52.124;5.422;2023-04-28T05:45:55;101146.72;;;8.44;70.92
71964;BME280;59834;52.124;5.422;2023-04-28T05:48:23;101140.03;;;8.38;71.12
71964;BME280;59834;52.124;5.422;2023-04-28T05:51:10;101136.59;;;8.38;72.20
71964;BME280;59834;52.124;5.422;2023-04-28T05:54:46;101141.75;;;8.39;72.84
71964;BME280;59834;52.124;5.422;2023-04-28T05:57:18;101134.97;;;8.35;72.54
71964;BME280;59834;52.124;5.422;2023-04-28T05:59:55;101136.69;;;8.35;73.86
71964;BME280;59834;52.124;5.422;2023-04-28T06:02:25;101140.19;;;8.35;75.10
71964;BME280;59834;52.124;5.422;2023-04-28T06:05:06;101145.44;;;8.34;75.60
71964;BME280;59834;52.124;5.422;2023-04-28T06:07:33;101140.94;;;8.37;75.93
71964;BME280;59834;52.124;5.422;2023-04-28T06:10:00;101147.00;;;8.38;75.74
71964;BME280;59834;52.124;5.422;2023-04-28T06:12:53;101146.13;;;8.39;75.89
71964;BME280;59834;52.124;5.422;2023-04-28T06:15:21;101137.28;;;8.41;76.48
71964;BME280;59834;52.124;5.422;2023-04-28T06:17:49;101127.72;;;8.42;77.79
71964;BME280;59834;52.124;5.422;2023-04-28T06:20:16;101116.56;;;8.38;78.17
71964;BME280;59834;52.124;5.422;2023-04-28T06:22:43;101113.06;;;8.39;80.03
71964;BME280;59834;52.124;5.422;2023-04-28T06:25:11;101103.22;;;8.44;79.94
71964;BME280;59834;52.124;5.422;2023-04-28T06:27:38;101109.75;;;8.53;80.58
71964;BME280;59834;52.124;5.422;2023-04-28T06:30:06;101110.97;;;8.63;80.96
71964;BME280;59834;52.124;5.422;2023-04-28T06:32:33;101113.16;;;8.71;80.98
71964;BME280;59834;52.124;5.422;2023-04-28T06:34:59;101108.94;;;8.86;81.45
71964;BME280;59834;52.124;5.422;2023-04-28T06:38:04;101098.78;;;8.97;80.23
71964;BME280;59834;52.124;5.422;2023-04-28T06:41:10;101108.66;;;9.08;80.07
71964;BME280;59834;52.124;5.422;2023-04-28T06:43:51;101098.88;;;9.11;80.52
71964;BME280;59834;52.124;5.422;2023-04-28T06:46:19;101091.72;;;9.15;81.18
71964;BME280;59834;52.124;5.422;2023-04-28T06:48:46;101102.63;;;9.23;81.72
71964;BME280;59834;52.124;5.422;2023-04-28T06:51:15;101101.03;;;9.36;81.67
71964;BME280;59834;52.124;5.422;2023-04-28T06:53:42;101107.50;;;9.45;82.11
71964;BME280;59834;52.124;5.422;2023-04-28T06:56:08;101097.00;;;9.47;81.86
71964;BME280;59834;52.124;5.422;2023-04-28T06:58:37;101092.78;;;9.44;82.17
71964;BME280;59834;52.124;5.422;2023-04-28T07:01:17;101093.28;;;9.51;81.25
71964;BME280;59834;52.124;5.422;2023-04-28T07:03:59;101086.03;;;9.56;82.83
71964;BME280;59834;52.124;5.422;2023-04-28T07:06:54;101078.78;;;9.61;83.27
71964;BME280;59834;52.124;5.422;2023-04-28T07:09:35;101077.66;;;9.65;84.08
71964;BME280;59834;52.124;5.422;2023-04-28T07:15:47;101077.56;;;9.82;85.34
71964;BME280;59834;52.124;5.422;2023-04-28T07:18:14;101075.38;;;9.90;85.72
71964;BME280;59834;52.124;5.422;2023-04-28T07:20:40;101083.63;;;9.99;86.15
71964;BME280;59834;52.124;5.422;2023-04-28T07:23:07;101086.31;;;10.13;85.71
71964;BME280;59834;52.124;5.422;2023-04-28T07:25:34;101087.81;;;10.17;85.76
71964;BME280;59834;52.124;5.422;2023-04-28T07:28:02;101079.50;;;10.25;86.09
71964;BME280;59834;52.124;5.422;2023-04-28T07:30:29;101080.97;;;10.30;86.59
71964;BME280;59834;52.124;5.422;2023-04-28T07:32:56;101083.41;;;10.33;86.77
71964;BME280;59834;52.124;5.422;2023-04-28T07:35:26;101082.75;;;10.44;86.96
71964;BME280;59834;52.124;5.422;2023-04-28T07:37:54;101080.16;;;10.58;87.31
71964;BME280;59834;52.124;5.422;2023-04-28T07:40:30;101089.06;;;10.70;87.14
71964;BME280;59834;52.124;5.422;2023-04-28T07:43:03;101087.28;;;10.71;86.20
71964;BME280;59834;52.124;5.422;2023-04-28T07:45:30;101085.16;;;10.77;87.10
71964;BME280;59834;52.124;5.422;2023-04-28T07:47:57;101079.16;;;10.90;86.63
71964;BME280;59834;52.124;5.422;2023-04-28T07:50:26;101070.28;;;10.92;86.15
71964;BME280;59834;52.124;5.422;2023-04-28T07:52:54;101073.75;;;11.07;86.44
71964;BME280;59834;52.124;5.422;2023-04-28T07:55:20;101072.97;;;11.19;86.35
71964;BME280;59834;52.124;5.422;2023-04-28T07:57:50;101070.03;;;11.38;85.67
71964;BME280;59834;52.124;5.422;2023-04-28T08:00:17;101071.03;;;11.50;85.68
71964;BME280;59834;52.124;5.422;2023-04-28T08:02:44;101069.81;;;11.55;85.52
71964;BME280;59834;52.124;5.422;2023-04-28T08:05:12;101069.69;;;11.71;85.23
71964;BME280;59834;52.124;5.422;2023-04-28T08:07:39;101066.22;;;11.71;85.13
71964;BME280;59834;52.124;5.422;2023-04-28T08:10:08;101060.59;;;11.63;85.38
71964;BME280;59834;52.124;5.422;2023-04-28T08:12:41;101060.28;;;11.54;85.93
71964;BME280;59834;52.124;5.422;2023-04-28T08:15:35;101060.91;;;11.58;85.53
71964;BME280;59834;52.124;5.422;2023-04-28T08:18:01;101059.00;;;11.60;86.23
71964;BME280;59834;52.124;5.422;2023-04-28T08:20:56;101062.50;;;11.61;86.13
71964;BME280;59834;52.124;5.422;2023-04-28T08:23:23;101074.78;;;11.46;86.86
71964;BME280;59834;52.124;5.422;2023-04-28T08:25:53;101075.59;;;11.33;87.97
71964;BME280;59834;52.124;5.422;2023-04-28T08:28:34;101071.84;;;11.23;88.61
71964;BME280;59834;52.124;5.422;2023-04-28T08:31:03;101076.22;;;11.23;89.27
71964;BME280;59834;52.124;5.422;2023-04-28T08:33:36;101073.63;;;11.23;89.95
71964;BME280;59834;52.124;5.422;2023-04-28T08:36:02;101074.47;;;11.23;90.17
71964;BME280;59834;52.124;5.422;2023-04-28T08:38:31;101067.47;;;11.24;90.79
71964;BME280;59834;52.124;5.422;2023-04-28T08:40:58;101070.06;;;11.24;90.92
71964;BME280;59834;52.124;5.422;2023-04-28T08:43:25;101062.06;;;11.40;91.82
71964;BME280;59834;52.124;5.422;2023-04-28T08:45:51;101062.94;;;11.67;91.74
71964;BME280;59834;52.124;5.422;2023-04-28T08:48:20;101066.06;;;11.87;91.17
71964;BME280;59834;52.124;5.422;2023-04-28T08:50:52;101063.94;;;12.06;89.87
71964;BME280;59834;52.124;5.422;2023-04-28T08:53:24;101064.75;;;11.94;91.46
71964;BME280;59834;52.124;5.422;2023-04-28T08:55:55;101070.63;;;11.97;91.21
71964;BME280;59834;52.124;5.422;2023-04-28T08:58:26;101064.03;;;12.05;91.89
71964;BME280;59834;52.124;5.422;2023-04-28T09:05:02;101061.41;;;11.77;93.10
71964;BME280;59834;52.124;5.422;2023-04-28T09:07:30;101057.84;;;11.78;94.04
71964;BME280;59834;52.124;5.422;2023-04-28T09:18:35;101044.84;;;11.77;94.70
71964;BME280;59834;52.124;5.422;2023-04-28T09:21:48;101049.13;;;11.78;94.82
71964;BME280;59834;52.124;5.422;2023-04-28T09:28:20;101049.66;;;11.70;96.37
71964;BME280;59834;52.124;5.422;2023-04-28T09:31:30;101050.28;;;11.74;96.38
71964;BME280;59834;52.124;5.422;2023-04-28T09:34:18;101050.19;;;11.75;97.12
71964;BME280;59834;52.124;5.422;2023-04-28T09:44:38;101047.22;;;11.94;97.76
71964;BME280;59834;52.124;5.422;2023-04-28T09:47:34;101048.78;;;11.97;98.68
71964;BME280;59834;52.124;5.422;2023-04-28T09:50:50;101045.47;;;12.08;98.70
71964;BME280;59834;52.124;5.422;2023-04-28T09:53:37;101041.50;;;12.15;99.56
71964;BME280;59834;52.124;5.422;2023-04-28T09:56:05;101036.47;;;12.24;100.00
71964;BME280;59834;52.124;5.422;2023-04-28T09:59:42;101034.16;;;12.33;98.99
71964;BME280;59834;52.124;5.422;2023-04-28T10:02:25;101031.97;;;12.39;100.00
71964;BME280;59834;52.124;5.422;2023-04-28T10:05:00;101035.34;;;12.41;100.00
71964;BME280;59834;52.124;5.422;2023-04-28T10:07:31;101034.19;;;12.45;100.00
71964;BME280;59834;52.124;5.422;2023-04-28T10:10:06;101036.88;;;12.44;100.00
71964;BME280;59834;52.124;5.422;2023-04-28T10:12:33;101031.34;;;12.48;100.00
71964;BME280;59834;52.124;5.422;2023-04-28T10:25:59;101033.53;;;12.42;100.00
71964;BME280;59834;52.124;5.422;2023-04-28T10:28:29;101039.84;;;12.39;100.00
71964;BME280;59834;52.124;5.422;2023-04-28T10:31:09;101029.97;;;12.43;100.00
71964;BME280;59834;52.124;5.422;2023-04-28T10:33:40;101042.13;;;12.44;100.00
71964;BME280;59834;52.124;5.422;2023-04-28T10:40:32;101034.59;;;12.52;100.00
71964;BME280;59834;52.124;5.422;2023-04-28T10:43:00;101036.47;;;12.50;100.00
71964;BME280;59834;52.124;5.422;2023-04-28T10:54:06;101034.97;;;12.84;100.00
71964;BME280;59834;52.124;5.422;2023-04-28T10:57:13;101033.22;;;12.85;100.00
71964;BME280;59834;52.124;5.422;2023-04-28T10:59:50;101032.88;;;13.02;100.00
71964;BME280;59834;52.124;5.422;2023-04-28T11:02:46;101033.47;;;13.18;100.00
71964;BME280;59834;52.124;5.422;2023-04-28T11:05:17;101034.31;;;13.19;100.00
71964;BME280;59834;52.124;5.422;2023-04-28T11:08:46;101033.97;;;13.24;100.00
71964;BME280;59834;52.124;5.422;2023-04-28T11:11:12;101032.72;;;13.29;100.00
71964;BME280;59834;52.124;5.422;2023-04-28T11:13:40;101023.25;;;13.27;100.00
71964;BME280;59834;52.124;5.422;2023-04-28T11:16:08;101029.03;;;13.19;100.00
71964;BME280;59834;52.124;5.422;2023-04-28T11:18:48;101034.31;;;13.19;100.00
71964;BME280;59834;52.124;5.422;2023-04-28T11:21:21;101031.28;;;13.12;100.00
71964;BME280;59834;52.124;5.422;2023-04-28T11:23:49;101030.31;;;13.13;100.00
71964;BME280;59834;52.124;5.422;2023-04-28T11:26:16;101023.88;;;13.17;100.00
71964;BME280;59834;52.124;5.422;2023-04-28T11:28:48;101022.34;;;13.02;100.00
71964;BME280;59834;52.124;5.422;2023-04-28T11:31:16;101019.94;;;12.99;100.00
71964;BME280;59834;52.124;5.422;2023-04-28T11:34:09;101018.16;;;13.00;100.00
71964;BME280;59834;52.124;5.422;2023-04-28T11:36:40;101020.31;;;13.18;100.00
71964;BME280;59834;52.124;5.422;2023-04-28T11:39:09;101015.78;;;13.33;100.00
71964;BME280;59834;52.124;5.422;2023-04-28T11:41:37;101015.94;;;13.43;100.00
71964;BME280;59834;52.124;5.422;2023-04-28T11:44:11;101022.41;;;13.39;100.00
71964;BME280;59834;52.124;5.422;2023-04-28T11:46:49;101013.53;;;13.40;100.00
71964;BME280;59834;52.124;5.422;2023-04-28T11:49:19;101014.59;;;13.37;100.00
71964;BME280;59834;52.124;5.422;2023-04-28T11:51:46;101018.81;;;13.40;100.00
71964;BME280;59834;52.124;5.422;2023-04-28T11:54:20;101019.03;;;13.37;100.00
71964;BME280;59834;52.124;5.422;2023-04-28T11:56:48;101024.19;;;13.38;100.00
71964;BME280;59834;52.124;5.422;2023-04-28T11:59:15;101026.19;;;13.35;100.00
71964;BME280;59834;52.124;5.422;2023-04-28T12:01:48;101028.09;;;13.33;100.00
71964;BME280;59834;52.124;5.422;2023-04-28T12:04:30;101026.91;;;13.37;100.00
71964;BME280;59834;52.124;5.422;2023-04-28T12:07:11;101025.03;;;13.39;100.00
71964;BME280;59834;52.124;5.422;2023-04-28T12:12:37;101022.97;;;13.55;100.00
71964;BME280;59834;52.124;5.422;2023-04-28T12:15:07;101029.00;;;13.68;100.00
71964;BME280;59834;52.124;5.422;2023-04-28T12:17:35;101029.25;;;13.77;99.57
71964;BME280;59834;52.124;5.422;2023-04-28T12:20:32;101029.38;;;13.75;99.93
71964;BME280;59834;52.124;5.422;2023-04-28T12:23:00;101024.56;;;13.69;100.00
71964;BME280;59834;52.124;5.422;2023-04-28T12:25:28;101028.72;;;13.60;100.00
71964;BME280;59834;52.124;5.422;2023-04-28T12:28:03;101032.94;;;13.74;100.00
71964;BME280;59834;52.124;5.422;2023-04-28T12:30:33;101035.53;;;13.87;99.82
71964;BME280;59834;52.124;5.422;2023-04-28T12:33:01;101033.63;;;13.89;98.98
71964;BME280;59834;52.124;5.422;2023-04-28T12:35:34;101036.81;;;13.81;99.17
71964;BME280;59834;52.124;5.422;2023-04-28T12:38:02;101034.06;;;13.83;98.61
71964;BME280;59834;52.124;5.422;2023-04-28T12:40:29;101042.63;;;13.74;99.40
71964;BME280;59834;52.124;5.422;2023-04-28T12:42:55;101033.66;;;13.65;99.15
71964;BME280;59834;52.124;5.422;2023-04-28T12:45:22;101027.22;;;13.69;98.64
71964;BME280;59834;52.124;5.422;2023-04-28T12:47:49;101030.94;;;13.78;97.90
71964;BME280;59834;52.124;5.422;2023-04-28T12:50:16;101030.03;;;13.90;97.67
71964;BME280;59834;52.124;5.422;2023-04-28T12:52:43;101029.00;;;14.04;96.67
71964;BME280;59834;52.124;5.422;2023-04-28T12:55:09;101022.84;;;14.27;96.58
71964;BME280;59834;52.124;5.422;2023-04-28T12:57:36;101028.47;;;14.34;95.08
71964;BME280;59834;52.124;5.422;2023-04-28T13:00:07;101031.84;;;14.36;95.45
71964;BME280;59834;52.124;5.422;2023-04-28T13:02:34;101027.72;;;14.09;98.08
71964;BME280;59834;52.124;5.422;2023-04-28T13:05:01;101037.72;;;14.04;97.98
71964;BME280;59834;52.124;5.422;2023-04-28T13:07:28;101036.78;;;14.05;99.08
71964;BME280;59834;52.124;5.422;2023-04-28T13:09:56;101033.84;;;14.21;97.69
71964;BME280;59834;52.124;5.422;2023-04-28T13:12:24;101028.16;;;14.50;97.68
71964;BME280;59834;52.124;5.422;2023-04-28T13:15:14;101038.84;;;14.59;96.83
71964;BME280;59834;52.124;5.422;2023-04-28T13:17:47;101027.56;;;14.46;97.52
71964;BME280;59834;52.124;5.422;2023-04-28T13:20:24;101038.09;;;14.46;97.55
71964;BME280;59834;52.124;5.422;2023-04-28T13:23:10;101035.41;;;14.35;97.33
71964;BME280;59834;52.124;5.422;2023-04-28T13:26:04;101032.53;;;14.27;97.42
71964;BME280;59834;52.124;5.422;2023-04-28T13:28:56;101030.03;;;14.25;97.16
71964;BME280;59834;52.124;5.422;2023-04-28T13:31:25;101030.13;;;14.24;96.52
71964;BME280;59834;52.124;5.422;2023-04-28T13:33:52;101035.28;;;14.25;97.26
71964;BME280;59834;52.124;5.422;2023-04-28T13:44:51;101041.03;;;14.19;96.70
71964;BME280;59834;52.124;5.422;2023-04-28T13:47:18;101035.66;;;14.32;96.94
71964;BME280;59834;52.124;5.422;2023-04-28T13:49:55;101045.47;;;14.41;97.47
71964;BME280;59834;52.124;5.422;2023-04-28T13:52:22;101045.03;;;14.47;98.03
71964;BME280;59834;52.124;5.422;2023-04-28T13:54:49;101048.25;;;14.39;97.45
71964;BME280;59834;52.124;5.422;2023-04-28T13:57:16;101041.94;;;14.18;98.39
71964;BME280;59834;52.124;5.422;2023-04-28T13:59:43;101042.19;;;14.15;99.49
71964;BME280;59834;52.124;5.422;2023-04-28T14:03:07;101044.94;;;14.13;98.69
71964;BME280;59834;52.124;5.422;2023-04-28T14:05:35;101047.56;;;14.02;99.41
71964;BME280;59834;52.124;5.422;2023-04-28T14:08:15;101053.97;;;13.98;100.00
71964;BME280;59834;52.124;5.422;2023-04-28T14:10:46;101055.06;;;13.96;100.00
71964;BME280;59834;52.124;5.422;2023-04-28T14:13:13;101052.53;;;13.94;100.00
71964;BME280;59834;52.124;5.422;2023-04-28T14:15:40;101064.13;;;13.91;100.00
71964;BME280;59834;52.124;5.422;2023-04-28T14:18:23;101053.84;;;13.88;100.00
71964;BME280;59834;52.124;5.422;2023-04-28T14:20:50;101052.66;;;13.93;100.00